createdAt,value
2023-03-03T00:00:07.167Z,.50
2023-03-03T00:00:38.460Z,.50
2023-03-03T00:01:10.153Z,.50
2023-03-03T00:01:42.073Z,.38
2023-03-03T00:02:14.216Z,.38
2023-03-03T00:02:46.161Z,.38
2023-03-03T00:03:18.286Z,.38
2023-03-03T00:03:50.211Z,.38
2023-03-03T00:04:22.066Z,.50
2023-03-03T00:04:54.115Z,.50
2023-03-03T00:05:26.227Z,.50
2023-03-03T00:05:58.038Z,.50
2023-03-03T00:06:30.080Z,.50
2023-03-03T00:07:02.189Z,.61
2023-03-03T00:07:33.807Z,.61
2023-03-03T00:08:05.885Z,.61
2023-03-03T00:08:37.895Z,.61
2023-03-03T00:09:09.980Z,.61
2023-03-03T00:09:41.699Z,.61
2023-03-03T00:10:14.033Z,.61
2023-03-03T00:10:45.736Z,.61
2023-03-03T00:11:17.994Z,.61
2023-03-03T00:11:49.893Z,.61
2023-03-03T00:12:21.586Z,.50
2023-03-03T00:12:53.683Z,.50
2023-03-03T00:13:25.754Z,.50
2023-03-03T00:13:57.616Z,.50
2023-03-03T00:14:29.895Z,.38
2023-03-03T00:15:04.366Z,.38
2023-03-03T00:15:33.639Z,.38
2023-03-03T00:16:05.651Z,.38
2023-03-03T00:16:21.583Z,.38
2023-03-03T00:17:05.585Z,.38
2023-03-03T00:17:21.607Z,.38
2023-03-03T00:18:05.541Z,.38
2023-03-03T00:18:37.679Z,.38
2023-03-03T00:19:09.603Z,.38
2023-03-03T00:19:41.395Z,.38
2023-03-03T00:20:13.736Z,.38
2023-03-03T00:20:45.432Z,.38
2023-03-03T00:21:17.316Z,.38
2023-03-03T00:21:49.698Z,.27
2023-03-03T00:22:05.433Z,.27
2023-03-03T00:22:37.256Z,.27
2023-03-03T00:22:53.379Z,.27
2023-03-03T00:23:25.292Z,.27
2023-03-03T00:23:57.225Z,.27
2023-03-03T00:24:29.516Z,.27
2023-03-03T00:25:01.736Z,.27
2023-03-03T00:25:33.086Z,.27
2023-03-03T00:26:05.392Z,.27
2023-03-03T00:26:21.321Z,.27
2023-03-03T00:26:53.135Z,.27
2023-03-03T00:27:37.321Z,.22
2023-03-03T00:28:09.318Z,.22
2023-03-03T00:28:41.139Z,.22
2023-03-03T00:29:13.107Z,.22
2023-03-03T00:29:45.001Z,.22
2023-03-03T00:30:17.659Z,.22
2023-03-03T00:30:49.138Z,.22
2023-03-03T00:31:05.386Z,.22
2023-03-03T00:31:49.260Z,.22
2023-03-03T00:32:20.984Z,.22
2023-03-03T00:32:52.817Z,.22
2023-03-03T00:33:24.847Z,.22
2023-03-03T00:33:56.862Z,.22
2023-03-03T00:34:29.288Z,.22
2023-03-03T00:35:00.940Z,.22
2023-03-03T00:35:32.700Z,.22
2023-03-03T00:36:05.320Z,.11
2023-03-03T00:36:36.810Z,.11
2023-03-03T00:37:08.918Z,.11
2023-03-03T00:37:40.828Z,0
2023-03-03T00:38:12.718Z,0
2023-03-03T00:38:44.701Z,0
2023-03-03T00:39:16.562Z,0
2023-03-03T00:39:48.859Z,0
2023-03-03T00:40:20.932Z,0
2023-03-03T00:40:52.624Z,0
2023-03-03T00:41:24.495Z,0
2023-03-03T00:41:56.629Z,-.11
2023-03-03T00:42:28.808Z,-.11
2023-03-03T00:43:00.682Z,-.11
2023-03-03T00:43:32.394Z,-.11
2023-03-03T00:44:04.889Z,-.11
2023-03-03T00:44:20.600Z,-.11
2023-03-03T00:44:52.410Z,-.11
2023-03-03T00:45:36.882Z,-.11
2023-03-03T00:46:08.361Z,-.11
2023-03-03T00:46:40.324Z,-.11
2023-03-03T00:47:12.418Z,-.11
2023-03-03T00:47:44.309Z,-.11
2023-03-03T00:48:16.176Z,-.22
2023-03-03T00:48:48.423Z,-.22
2023-03-03T00:49:04.804Z,-.22
2023-03-03T00:49:48.364Z,-.22
2023-03-03T00:50:20.818Z,-.22
2023-03-03T00:50:52.093Z,-.11
2023-03-03T00:51:23.983Z,-.11
2023-03-03T00:51:56.154Z,-.11
2023-03-03T00:52:28.558Z,-.22
2023-03-03T00:52:59.922Z,-.22
2023-03-03T00:53:31.966Z,-.22
2023-03-03T00:54:04.610Z,-.22
2023-03-03T00:54:36.020Z,-.22
2023-03-03T00:55:08.175Z,-.22
2023-03-03T00:55:40.132Z,-.22
2023-03-03T00:56:11.912Z,-.22
2023-03-03T00:56:43.860Z,-.22
2023-03-03T00:57:15.737Z,-.27
2023-03-03T00:57:47.872Z,-.27
2023-03-03T00:58:20.132Z,-.27
2023-03-03T00:58:51.791Z,-.27
2023-03-03T00:59:23.630Z,-.27
2023-03-03T00:59:55.871Z,-.27
2023-03-03T01:00:28.461Z,-.27
2023-03-03T01:00:59.943Z,-.27
2023-03-03T01:01:31.524Z,-.27
2023-03-03T01:02:04.132Z,-.38
2023-03-03T01:02:19.855Z,-.38
2023-03-03T01:02:51.491Z,-.38
2023-03-03T01:03:35.727Z,-.50
2023-03-03T01:04:07.611Z,-.50
2023-03-03T01:04:39.792Z,-.50
2023-03-03T01:05:11.810Z,-.50
2023-03-03T01:05:43.573Z,-.50
2023-03-03T01:06:15.386Z,-.50
2023-03-03T01:06:47.431Z,-.50
2023-03-03T01:07:19.741Z,-.50
2023-03-03T01:07:51.485Z,-.50
2023-03-03T01:08:23.368Z,-.50
2023-03-03T01:08:55.410Z,-.50
2023-03-03T01:09:27.499Z,-.50
2023-03-03T01:09:59.744Z,-.50
2023-03-03T01:10:31.454Z,-.50
2023-03-03T01:11:03.704Z,-.50
2023-03-03T01:11:35.294Z,-.50
2023-03-03T01:12:07.361Z,-.50
2023-03-03T01:12:39.469Z,-.50
2023-03-03T01:13:11.267Z,-.61
2023-03-03T01:13:43.280Z,-.61
2023-03-03T01:14:15.218Z,-.61
2023-03-03T01:14:47.103Z,-.61
2023-03-03T01:15:19.672Z,-.72
2023-03-03T01:15:51.186Z,-.72
2023-03-03T01:16:23.336Z,-.72
2023-03-03T01:16:54.918Z,-.72
2023-03-03T01:17:27.062Z,-.72
2023-03-03T01:17:59.491Z,-.72
2023-03-03T01:18:31.030Z,-.72
2023-03-03T01:19:03.129Z,-.72
2023-03-03T01:19:19.136Z,-.72
2023-03-03T01:19:50.888Z,-.72
2023-03-03T01:20:35.206Z,-.77
2023-03-03T01:21:06.966Z,-.77
2023-03-03T01:21:38.862Z,-.77
2023-03-03T01:22:10.840Z,-.77
2023-03-03T01:22:42.868Z,-.77
2023-03-03T01:23:14.840Z,-.77
2023-03-03T01:23:46.790Z,-.77
2023-03-03T01:24:03.243Z,-.77
2023-03-03T01:24:46.670Z,-.88
2023-03-03T01:25:19.210Z,-.88
2023-03-03T01:25:50.817Z,-.88
2023-03-03T01:26:22.557Z,-.88
2023-03-03T01:26:54.561Z,-.88
2023-03-03T01:27:26.604Z,-.88
2023-03-03T01:27:58.914Z,-1.00
2023-03-03T01:28:30.491Z,-1.00
2023-03-03T01:29:02.985Z,-1.00
2023-03-03T01:29:34.596Z,-1.11
2023-03-03T01:30:06.937Z,-1.11
2023-03-03T01:30:38.625Z,-1.11
2023-03-03T01:31:10.625Z,-1.11
2023-03-03T01:31:42.440Z,-1.11
2023-03-03T01:32:14.342Z,-1.11
2023-03-03T01:32:46.454Z,-1.22
2023-03-03T01:33:18.531Z,-1.22
2023-03-03T01:33:50.452Z,-1.22
2023-03-03T01:34:22.211Z,-1.22
2023-03-03T01:34:54.237Z,-1.22
2023-03-03T01:35:26.641Z,-1.22
2023-03-03T01:35:58.662Z,-1.22
2023-03-03T01:36:30.210Z,-1.22
2023-03-03T01:37:02.464Z,-1.22
2023-03-03T01:37:18.386Z,-1.22
2023-03-03T01:37:50.175Z,-1.22
2023-03-03T01:38:34.228Z,-1.22
2023-03-03T01:39:05.977Z,-1.22
2023-03-03T01:39:38.380Z,-1.22
2023-03-03T01:40:10.468Z,-1.22
2023-03-03T01:40:42.193Z,-1.27
2023-03-03T01:41:13.909Z,-1.27
2023-03-03T01:41:46.063Z,-1.27
2023-03-03T01:42:19.307Z,-1.27
2023-03-03T01:42:50.097Z,-1.27
2023-03-03T01:43:21.892Z,-1.27
2023-03-03T01:43:53.945Z,-1.27
2023-03-03T01:44:26.008Z,-1.27
2023-03-03T01:44:58.104Z,-1.27
2023-03-03T01:45:30.408Z,-1.38
2023-03-03T01:46:02.111Z,-1.38
2023-03-03T01:46:33.912Z,-1.38
2023-03-03T01:47:05.955Z,-1.38
2023-03-03T01:47:37.939Z,-1.50
2023-03-03T01:48:09.990Z,-1.50
2023-03-03T01:48:41.754Z,-1.50
2023-03-03T01:49:13.781Z,-1.50
2023-03-03T01:49:45.521Z,-1.50
2023-03-03T01:50:02.445Z,-1.50
2023-03-03T01:50:33.580Z,-1.50
2023-03-03T01:50:50.113Z,-1.50
2023-03-03T01:51:21.697Z,-1.50
2023-03-03T01:51:53.525Z,-1.50
2023-03-03T01:52:25.685Z,-1.50
2023-03-03T01:52:57.749Z,-1.50
2023-03-03T01:53:29.816Z,-1.50
2023-03-03T01:54:01.831Z,-1.50
2023-03-03T01:54:17.626Z,-1.50
2023-03-03T01:54:49.608Z,-1.50
2023-03-03T01:55:33.901Z,-1.50
2023-03-03T01:56:06.385Z,-1.50
2023-03-03T01:56:37.391Z,-1.61
2023-03-03T01:57:09.682Z,-1.61
2023-03-03T01:57:41.458Z,-1.61
2023-03-03T01:58:13.401Z,-1.61
2023-03-03T01:58:45.237Z,-1.61
2023-03-03T01:59:17.308Z,-1.61
2023-03-03T01:59:49.601Z,-1.72
2023-03-03T02:00:21.582Z,-1.72
2023-03-03T02:00:53.210Z,-1.72
2023-03-03T02:01:25.155Z,-1.72
2023-03-03T02:01:57.386Z,-1.72
2023-03-03T02:02:29.528Z,-1.77
2023-03-03T02:03:01.395Z,-1.77
2023-03-03T02:03:33.119Z,-1.77
2023-03-03T02:04:05.437Z,-1.77
2023-03-03T02:04:37.060Z,-1.77
2023-03-03T02:05:09.479Z,-1.77
2023-03-03T02:05:41.055Z,-1.77
2023-03-03T02:06:13.116Z,-1.88
2023-03-03T02:06:44.825Z,-1.88
2023-03-03T02:07:16.845Z,-1.88
2023-03-03T02:07:33.119Z,-1.88
2023-03-03T02:08:16.934Z,-1.88
2023-03-03T02:08:49.046Z,-1.88
2023-03-03T02:09:20.891Z,-1.88
2023-03-03T02:09:52.820Z,-1.88
2023-03-03T02:10:25.062Z,-1.88
2023-03-03T02:10:56.821Z,-1.77
2023-03-03T02:11:28.733Z,-1.77
2023-03-03T02:12:00.804Z,-1.77
2023-03-03T02:12:16.859Z,-1.77
2023-03-03T02:12:48.658Z,-1.77
2023-03-03T02:13:32.846Z,-1.77
2023-03-03T02:14:04.735Z,-1.77
2023-03-03T02:14:36.621Z,-1.77
2023-03-03T02:15:10.547Z,-1.77
2023-03-03T02:15:40.847Z,-1.77
2023-03-03T02:16:12.521Z,-1.77
2023-03-03T02:16:44.590Z,-1.88
2023-03-03T02:17:00.806Z,-1.88
2023-03-03T02:17:44.571Z,-1.88
2023-03-03T02:18:16.506Z,-1.88
2023-03-03T02:18:48.437Z,-1.88
2023-03-03T02:19:20.604Z,-2.00
2023-03-03T02:19:52.431Z,-2.00
2023-03-03T02:20:24.681Z,-2.00
2023-03-03T02:20:56.333Z,-2.00
2023-03-03T02:21:28.514Z,-2.00
2023-03-03T02:22:00.540Z,-2.00
2023-03-03T02:22:32.424Z,-2.00
2023-03-03T02:23:04.591Z,-2.00
2023-03-03T02:23:36.248Z,-2.00
2023-03-03T02:24:08.286Z,-2.00
2023-03-03T02:24:40.482Z,-2.00
2023-03-03T02:25:12.454Z,-2.00
2023-03-03T02:25:44.165Z,-2.00
2023-03-03T02:26:16.161Z,-2.11
2023-03-03T02:26:48.417Z,-2.11
2023-03-03T02:27:20.167Z,-2.11
2023-03-03T02:27:51.992Z,-2.11
2023-03-03T02:28:24.189Z,-2.00
2023-03-03T02:28:56.177Z,-2.00
2023-03-03T02:29:28.041Z,-2.00
2023-03-03T02:30:00.756Z,-2.00
2023-03-03T02:30:31.964Z,-2.11
2023-03-03T02:31:04.256Z,-2.11
2023-03-03T02:31:35.947Z,-2.11
2023-03-03T02:32:08.034Z,-2.11
2023-03-03T02:32:40.179Z,-2.11
2023-03-03T02:33:11.902Z,-2.11
2023-03-03T02:33:43.812Z,-2.11
2023-03-03T02:34:00.168Z,-2.11
2023-03-03T02:34:43.798Z,-2.11
2023-03-03T02:35:16.057Z,-2.11
2023-03-03T02:35:48.027Z,-2.22
2023-03-03T02:36:19.960Z,-2.22
2023-03-03T02:36:51.675Z,-2.22
2023-03-03T02:37:23.750Z,-2.22
2023-03-03T02:37:55.803Z,-2.22
2023-03-03T02:38:27.682Z,-2.22
2023-03-03T02:39:00.015Z,-2.22
2023-03-03T02:39:31.741Z,-2.22
2023-03-03T02:40:04.299Z,-2.22
2023-03-03T02:40:35.469Z,-2.22
2023-03-03T02:41:07.494Z,-2.22
2023-03-03T02:41:39.856Z,-2.22
2023-03-03T02:42:11.682Z,-2.22
2023-03-03T02:42:43.349Z,-2.22
2023-03-03T02:42:59.786Z,-2.22
2023-03-03T02:43:31.411Z,-2.22
2023-03-03T02:43:47.529Z,-2.22
2023-03-03T02:44:19.621Z,-2.27
2023-03-03T02:44:51.364Z,-2.27
2023-03-03T02:45:23.708Z,-2.27
2023-03-03T02:45:55.452Z,-2.27
2023-03-03T02:46:27.402Z,-2.27
2023-03-03T02:46:59.514Z,-2.22
2023-03-03T02:47:15.373Z,-2.22
2023-03-03T02:47:47.342Z,-2.22
2023-03-03T02:48:31.246Z,-2.22
2023-03-03T02:49:03.703Z,-2.22
2023-03-03T02:49:35.138Z,-2.22
2023-03-03T02:50:07.399Z,-2.22
2023-03-03T02:50:39.354Z,-2.22
2023-03-03T02:51:11.138Z,-2.22
2023-03-03T02:51:42.943Z,-2.11
2023-03-03T02:51:59.217Z,-2.11
2023-03-03T02:52:43.020Z,-2.11
2023-03-03T02:53:15.068Z,-2.11
2023-03-03T02:53:47.082Z,-2.22
2023-03-03T02:54:19.151Z,-2.22
2023-03-03T02:54:51.008Z,-2.22
2023-03-03T02:55:23.307Z,-2.11
2023-03-03T02:55:54.995Z,-2.11
2023-03-03T02:56:26.793Z,-2.11
2023-03-03T02:56:59.187Z,-2.11
2023-03-03T02:57:30.929Z,-2.11
2023-03-03T02:58:03.619Z,-2.11
2023-03-03T02:58:34.778Z,-2.11
2023-03-03T02:59:06.847Z,-2.11
2023-03-03T02:59:38.967Z,-2.11
2023-03-03T03:00:13.836Z,-2.00
2023-03-03T03:00:42.784Z,-2.00
2023-03-03T03:00:59.403Z,-2.00
2023-03-03T03:01:30.663Z,-2.00
2023-03-03T03:01:46.693Z,-2.00
2023-03-03T03:02:18.716Z,-1.88
2023-03-03T03:02:50.672Z,-1.88
2023-03-03T03:03:06.808Z,-1.88
2023-03-03T03:03:38.657Z,-1.88
2023-03-03T03:04:22.613Z,-2.00
2023-03-03T03:04:54.616Z,-2.00
2023-03-03T03:05:26.659Z,-2.00
2023-03-03T03:05:58.618Z,-1.88
2023-03-03T03:06:30.781Z,-1.88
2023-03-03T03:07:02.976Z,-1.77
2023-03-03T03:07:34.281Z,-1.77
2023-03-03T03:08:07.529Z,-1.72
2023-03-03T03:08:38.566Z,-1.72
2023-03-03T03:09:10.641Z,-1.72
2023-03-03T03:09:42.284Z,-1.72
2023-03-03T03:10:14.720Z,-1.72
2023-03-03T03:10:46.230Z,-1.72
2023-03-03T03:11:18.469Z,-1.61
2023-03-03T03:11:50.290Z,-1.61
2023-03-03T03:12:22.220Z,-1.50
2023-03-03T03:12:54.239Z,-1.50
2023-03-03T03:13:26.513Z,-1.50
2023-03-03T03:13:58.178Z,-1.50
2023-03-03T03:14:14.267Z,-1.50
2023-03-03T03:14:58.135Z,-1.50
2023-03-03T03:15:30.719Z,-1.50
2023-03-03T03:16:02.586Z,-1.50
2023-03-03T03:16:34.074Z,-1.50
2023-03-03T03:17:05.998Z,-1.50
2023-03-03T03:17:38.226Z,-1.50
2023-03-03T03:18:10.184Z,-1.50
2023-03-03T03:18:41.839Z,-1.50
2023-03-03T03:18:58.011Z,-1.50
2023-03-03T03:19:30.098Z,-1.38
2023-03-03T03:19:45.946Z,-1.38
2023-03-03T03:20:18.289Z,-1.38
2023-03-03T03:20:50.023Z,-1.38
2023-03-03T03:21:21.783Z,-1.38
2023-03-03T03:21:53.848Z,-1.38
2023-03-03T03:22:25.828Z,-1.38
2023-03-03T03:22:57.806Z,-1.38
2023-03-03T03:23:13.855Z,-1.38
2023-03-03T03:23:45.804Z,-1.38
2023-03-03T03:24:30.188Z,-1.27
2023-03-03T03:25:02.392Z,-1.27
2023-03-03T03:25:33.736Z,-1.22
2023-03-03T03:26:05.728Z,-1.22
2023-03-03T03:26:37.719Z,-1.22
2023-03-03T03:27:10.168Z,-1.22
2023-03-03T03:27:41.465Z,-1.11
2023-03-03T03:27:57.712Z,-1.11
2023-03-03T03:28:41.652Z,-1.11
2023-03-03T03:29:13.504Z,-1.22
2023-03-03T03:29:45.544Z,-1.22
2023-03-03T03:30:18.072Z,-1.22
2023-03-03T03:30:49.666Z,-1.22
2023-03-03T03:31:21.482Z,-1.22
2023-03-03T03:31:53.503Z,-1.22
2023-03-03T03:32:25.314Z,-1.22
2023-03-03T03:32:57.532Z,-1.11
2023-03-03T03:33:29.630Z,-1.11
2023-03-03T03:34:01.444Z,-1.11
2023-03-03T03:34:33.282Z,-1.11
2023-03-03T03:35:05.628Z,-1.11
2023-03-03T03:35:37.241Z,-1.22
2023-03-03T03:36:09.644Z,-1.22
2023-03-03T03:36:41.240Z,-1.22
2023-03-03T03:37:13.143Z,-1.22
2023-03-03T03:37:45.174Z,-1.22
2023-03-03T03:38:17.062Z,-1.22
2023-03-03T03:38:49.116Z,-1.22
2023-03-03T03:39:21.109Z,-1.22
2023-03-03T03:39:53.059Z,-1.11
2023-03-03T03:40:25.378Z,-1.11
2023-03-03T03:40:56.965Z,-1.11
2023-03-03T03:41:13.126Z,-1.11
2023-03-03T03:41:44.935Z,-1.00
2023-03-03T03:42:29.506Z,-1.00
2023-03-03T03:43:01.269Z,-1.00
2023-03-03T03:43:32.896Z,-1.00
2023-03-03T03:44:05.116Z,-1.00
2023-03-03T03:44:36.996Z,-1.00
2023-03-03T03:45:10.579Z,-1.00
2023-03-03T03:45:40.860Z,-1.00
2023-03-03T03:45:57.356Z,-1.00
2023-03-03T03:46:40.866Z,-.88
2023-03-03T03:47:12.838Z,-.77
2023-03-03T03:47:44.795Z,-.77
2023-03-03T03:48:16.998Z,-.77
2023-03-03T03:48:48.828Z,-.77
2023-03-03T03:49:21.031Z,-.77
2023-03-03T03:49:52.433Z,-.77
2023-03-03T03:50:24.753Z,-.77
2023-03-03T03:50:56.636Z,-.72
2023-03-03T03:51:28.733Z,-.72
2023-03-03T03:52:00.767Z,-.72
2023-03-03T03:52:32.500Z,-.72
2023-03-03T03:53:04.777Z,-.72
2023-03-03T03:53:36.607Z,-.72
2023-03-03T03:54:08.808Z,-.72
2023-03-03T03:54:40.422Z,-.72
2023-03-03T03:55:12.669Z,-.72
2023-03-03T03:55:44.440Z,-.72
2023-03-03T03:56:16.486Z,-.72
2023-03-03T03:56:48.262Z,-.72
2023-03-03T03:57:20.583Z,-.72
2023-03-03T03:57:52.258Z,-.72
2023-03-03T03:58:24.609Z,-.72
2023-03-03T03:58:56.259Z,-.72
2023-03-03T03:59:12.357Z,-.72
2023-03-03T03:59:44.107Z,-.61
2023-03-03T04:00:28.802Z,-.61
2023-03-03T04:01:00.599Z,-.61
2023-03-03T04:01:32.069Z,-.61
2023-03-03T04:02:04.834Z,-.61
2023-03-03T04:02:36.315Z,-.61
2023-03-03T04:03:08.230Z,-.61
2023-03-03T04:03:40.283Z,-.50
2023-03-03T04:03:56.328Z,-.50
2023-03-03T04:04:40.204Z,-.50
2023-03-03T04:05:12.317Z,-.50
2023-03-03T04:05:43.891Z,-.50
2023-03-03T04:06:15.975Z,-.50
2023-03-03T04:06:47.997Z,-.50
2023-03-03T04:07:20.069Z,-.50
2023-03-03T04:07:51.994Z,-.50
2023-03-03T04:08:23.965Z,-.50
2023-03-03T04:08:55.961Z,-.50
2023-03-03T04:09:27.835Z,-.50
2023-03-03T04:10:00.017Z,-.38
2023-03-03T04:10:32.030Z,-.38
2023-03-03T04:11:04.076Z,-.38
2023-03-03T04:11:35.899Z,-.38
2023-03-03T04:12:07.808Z,-.38
2023-03-03T04:12:39.906Z,-.38
2023-03-03T04:12:55.752Z,-.38
2023-03-03T04:13:27.669Z,-.38
2023-03-03T04:13:43.728Z,-.38
2023-03-03T04:14:15.691Z,-.38
2023-03-03T04:14:47.699Z,-.38
2023-03-03T04:15:20.388Z,-.38
2023-03-03T04:15:51.684Z,-.27
2023-03-03T04:16:23.694Z,-.27
2023-03-03T04:16:55.422Z,-.27
2023-03-03T04:17:11.660Z,-.27
2023-03-03T04:17:43.365Z,-.27
2023-03-03T04:18:27.584Z,-.27
2023-03-03T04:18:59.735Z,-.22
2023-03-03T04:19:31.442Z,-.22
2023-03-03T04:20:04.122Z,-.22
2023-03-03T04:20:35.452Z,-.22
2023-03-03T04:21:07.436Z,-.22
2023-03-03T04:21:39.852Z,-.22
2023-03-03T04:21:55.498Z,-.22
2023-03-03T04:22:39.501Z,-.22
2023-03-03T04:23:11.435Z,-.22
2023-03-03T04:23:43.180Z,-.22
2023-03-03T04:24:15.235Z,-.22
2023-03-03T04:24:47.179Z,-.22
2023-03-03T04:25:19.713Z,-.22
2023-03-03T04:25:51.410Z,-.11
2023-03-03T04:26:23.130Z,-.11
2023-03-03T04:26:55.238Z,-.11
2023-03-03T04:27:27.146Z,-.11
2023-03-03T04:27:59.319Z,-.11
2023-03-03T04:28:31.138Z,-.11
2023-03-03T04:29:03.606Z,-.11
2023-03-03T04:29:35.122Z,-.11
2023-03-03T04:30:08.573Z,-.11
2023-03-03T04:30:39.384Z,-.11
2023-03-03T04:31:10.999Z,-.11
2023-03-03T04:31:42.884Z,0
2023-03-03T04:32:15.215Z,0
2023-03-03T04:32:46.836Z,0
2023-03-03T04:33:19.036Z,0
2023-03-03T04:33:51.085Z,0
2023-03-03T04:34:22.907Z,0
2023-03-03T04:35:05.777Z,0
2023-03-03T04:35:11.336Z,.11
2023-03-03T04:35:42.750Z,.11
2023-03-03T04:36:26.726Z,.11
2023-03-03T04:36:58.833Z,.11
2023-03-03T04:37:30.730Z,.11
2023-03-03T04:38:03.016Z,.11
2023-03-03T04:38:34.749Z,.22
2023-03-03T04:39:06.737Z,.22
2023-03-03T04:39:38.627Z,.22
2023-03-03T04:39:54.773Z,.22
2023-03-03T04:40:41.308Z,.22
2023-03-03T04:41:10.800Z,.22
2023-03-03T04:41:42.576Z,.22
2023-03-03T04:42:14.431Z,.22
2023-03-03T04:42:46.487Z,.22
2023-03-03T04:43:18.595Z,.22
2023-03-03T04:43:50.702Z,.22
2023-03-03T04:44:22.392Z,.22
2023-03-03T04:44:54.460Z,.22
2023-03-03T04:45:26.876Z,.22
2023-03-03T04:45:58.714Z,.22
2023-03-03T04:46:30.510Z,.22
2023-03-03T04:47:02.860Z,.22
2023-03-03T04:47:34.293Z,.22
2023-03-03T04:48:06.409Z,.22
2023-03-03T04:48:38.315Z,.22
2023-03-03T04:48:54.393Z,.22
2023-03-03T04:49:26.164Z,.22
2023-03-03T04:49:42.207Z,.22
2023-03-03T04:50:14.505Z,.22
2023-03-03T04:50:45.948Z,.22
2023-03-03T04:51:18.127Z,.22
2023-03-03T04:51:50.201Z,.22
2023-03-03T04:52:22.112Z,.22
2023-03-03T04:52:54.077Z,.22
2023-03-03T04:53:26.076Z,.22
2023-03-03T04:53:58.078Z,.22
2023-03-03T04:54:30.225Z,.22
2023-03-03T04:55:03.413Z,.22
2023-03-03T04:55:33.975Z,.22
2023-03-03T04:56:06.029Z,.22
2023-03-03T04:56:40.065Z,.22
2023-03-03T04:57:09.985Z,.11
2023-03-03T04:57:41.771Z,.11
2023-03-03T04:58:13.877Z,.11
2023-03-03T04:58:45.857Z,.11
2023-03-03T04:59:17.814Z,.11
2023-03-03T04:59:49.974Z,.11
2023-03-03T05:00:22.260Z,.11
2023-03-03T05:00:53.858Z,.11
2023-03-03T05:01:25.796Z,.11
2023-03-03T05:01:42.056Z,.11
2023-03-03T05:02:13.771Z,.22
2023-03-03T05:02:57.643Z,.22
2023-03-03T05:03:29.952Z,.11
2023-03-03T05:04:01.620Z,.11
2023-03-03T05:04:33.658Z,.11
2023-03-03T05:05:05.817Z,.11
2023-03-03T05:05:37.672Z,.11
2023-03-03T05:06:09.606Z,.11
2023-03-03T05:06:41.401Z,.11
2023-03-03T05:07:13.571Z,.11
2023-03-03T05:07:45.457Z,.11
2023-03-03T05:08:17.199Z,.11
2023-03-03T05:08:49.499Z,.11
2023-03-03T05:09:21.471Z,.11
2023-03-03T05:09:53.354Z,.11
2023-03-03T05:10:25.589Z,.11
2023-03-03T05:10:41.297Z,.11
2023-03-03T05:11:25.317Z,.11
2023-03-03T05:11:41.267Z,.11
2023-03-03T05:12:25.324Z,.22
2023-03-03T05:12:57.279Z,.22
2023-03-03T05:13:29.305Z,.22
2023-03-03T05:14:01.233Z,.22
2023-03-03T05:14:33.152Z,.22
2023-03-03T05:15:06.370Z,.22
2023-03-03T05:15:37.090Z,.27
2023-03-03T05:16:09.164Z,.27
2023-03-03T05:16:41.086Z,.27
2023-03-03T05:17:12.984Z,.27
2023-03-03T05:17:44.924Z,.38
2023-03-03T05:18:16.920Z,.38
2023-03-03T05:18:49.096Z,.38
2023-03-03T05:19:21.246Z,.38
2023-03-03T05:19:52.856Z,.38
2023-03-03T05:20:09.568Z,.38
2023-03-03T05:20:52.854Z,.38
2023-03-03T05:21:09.458Z,.38
2023-03-03T05:21:52.814Z,.38
2023-03-03T05:22:24.948Z,.38
2023-03-03T05:22:56.639Z,.38
2023-03-03T05:23:28.912Z,.38
2023-03-03T05:24:00.841Z,.38
2023-03-03T05:24:32.675Z,.38
2023-03-03T05:25:08.072Z,.38
2023-03-03T05:25:36.631Z,.38
2023-03-03T05:25:53.029Z,.38
2023-03-03T05:26:24.625Z,.38
2023-03-03T05:26:40.911Z,.38
2023-03-03T05:27:12.459Z,.38
2023-03-03T05:27:44.516Z,.38
2023-03-03T05:28:16.548Z,.27
2023-03-03T05:28:48.773Z,.27
2023-03-03T05:29:20.440Z,.27
2023-03-03T05:29:52.490Z,.27
2023-03-03T05:30:12.273Z,.27
2023-03-03T05:30:40.614Z,.27
2023-03-03T05:31:24.754Z,.27
2023-03-03T05:31:56.461Z,.27
2023-03-03T05:32:28.450Z,.27
2023-03-03T05:33:00.521Z,.27
2023-03-03T05:33:32.275Z,.27
2023-03-03T05:34:04.653Z,.27
2023-03-03T05:34:36.375Z,.27
2023-03-03T05:34:52.425Z,.27
2023-03-03T05:35:36.640Z,.27
2023-03-03T05:36:08.403Z,.27
2023-03-03T05:36:40.280Z,.27
2023-03-03T05:37:12.178Z,.27
2023-03-03T05:37:44.199Z,.27
2023-03-03T05:38:16.774Z,.27
2023-03-03T05:38:47.968Z,.27
2023-03-03T05:39:20.199Z,.27
2023-03-03T05:39:52.208Z,.27
2023-03-03T05:40:24.483Z,.27
2023-03-03T05:40:56.046Z,.27
2023-03-03T05:41:27.984Z,.27
2023-03-03T05:41:59.987Z,.27
2023-03-03T05:42:32.071Z,.38
2023-03-03T05:43:04.347Z,.38
2023-03-03T05:43:35.911Z,.38
2023-03-03T05:44:08.015Z,.38
2023-03-03T05:44:40.106Z,.38
2023-03-03T05:45:12.658Z,.38
2023-03-03T05:45:43.890Z,.38
2023-03-03T05:46:16.002Z,.38
2023-03-03T05:46:47.917Z,.38
2023-03-03T05:47:20.219Z,.50
2023-03-03T05:47:51.936Z,.50
2023-03-03T05:48:23.753Z,.50
2023-03-03T05:48:55.947Z,.50
2023-03-03T05:49:27.777Z,.50
2023-03-03T05:49:59.846Z,.50
2023-03-03T05:50:32.040Z,.50
2023-03-03T05:51:04.457Z,.50
2023-03-03T05:51:35.532Z,.50
2023-03-03T05:52:07.652Z,.50
2023-03-03T05:52:39.958Z,.50
2023-03-03T05:53:11.740Z,.50
2023-03-03T05:53:43.465Z,.50
2023-03-03T05:54:15.547Z,.61
2023-03-03T05:54:47.497Z,.61
2023-03-03T05:55:20.085Z,.61
2023-03-03T05:55:51.526Z,.61
2023-03-03T05:56:07.522Z,.61
2023-03-03T05:56:51.491Z,.61
2023-03-03T05:57:23.362Z,.61
2023-03-03T05:57:55.397Z,.61
2023-03-03T05:58:27.233Z,.61
2023-03-03T05:58:59.286Z,.61
2023-03-03T05:59:31.370Z,.61
2023-03-03T06:00:07.326Z,.61
2023-03-03T06:00:35.162Z,.61
2023-03-03T06:00:51.828Z,.61
2023-03-03T06:01:23.150Z,.61
2023-03-03T06:01:39.360Z,.61
2023-03-03T06:02:11.442Z,.61
2023-03-03T06:02:43.156Z,.61
2023-03-03T06:03:15.233Z,.61
2023-03-03T06:03:47.093Z,.61
2023-03-03T06:04:19.125Z,.61
2023-03-03T06:04:51.155Z,.61
2023-03-03T06:05:07.503Z,.61
2023-03-03T06:05:38.993Z,.61
2023-03-03T06:06:23.211Z,.61
2023-03-03T06:06:54.929Z,.61
2023-03-03T06:07:26.863Z,.61
2023-03-03T06:07:59.196Z,.61
2023-03-03T06:08:31.057Z,.61
2023-03-03T06:09:03.742Z,.61
2023-03-03T06:09:34.801Z,.61
2023-03-03T06:09:51.326Z,.61
2023-03-03T06:10:35.064Z,.61
2023-03-03T06:11:06.913Z,.61
2023-03-03T06:11:38.724Z,.72
2023-03-03T06:12:10.815Z,.72
2023-03-03T06:12:42.883Z,.72
2023-03-03T06:13:17.493Z,.77
2023-03-03T06:13:46.806Z,.77
2023-03-03T06:14:18.789Z,.77
2023-03-03T06:14:50.770Z,.77
2023-03-03T06:15:23.265Z,.77
2023-03-03T06:15:54.701Z,.77
2023-03-03T06:16:26.940Z,.88
2023-03-03T06:16:58.755Z,.88
2023-03-03T06:17:30.826Z,.88
2023-03-03T06:18:02.880Z,.88
2023-03-03T06:18:34.630Z,.88
2023-03-03T06:19:06.619Z,.88
2023-03-03T06:19:38.878Z,.88
2023-03-03T06:20:11.817Z,.88
2023-03-03T06:20:42.479Z,.88
2023-03-03T06:21:14.670Z,1.00
2023-03-03T06:21:46.594Z,1.00
2023-03-03T06:22:18.445Z,1.00
2023-03-03T06:22:50.543Z,1.00
2023-03-03T06:23:22.451Z,1.00
2023-03-03T06:23:54.561Z,1.00
2023-03-03T06:24:26.399Z,1.00
2023-03-03T06:24:58.459Z,1.00
2023-03-03T06:25:30.745Z,1.00
2023-03-03T06:26:02.695Z,1.00
2023-03-03T06:26:34.196Z,1.00
2023-03-03T06:26:50.558Z,1.00
2023-03-03T06:27:34.290Z,1.00
2023-03-03T06:27:50.614Z,1.00
2023-03-03T06:28:34.440Z,1.00
2023-03-03T06:29:06.163Z,1.00
2023-03-03T06:29:22.356Z,1.00
2023-03-03T06:29:54.274Z,1.00
2023-03-03T06:30:38.618Z,1.00
2023-03-03T06:31:10.342Z,1.00
2023-03-03T06:31:42.364Z,1.00
2023-03-03T06:32:14.185Z,1.00
2023-03-03T06:32:46.321Z,1.00
2023-03-03T06:33:18.151Z,1.00
2023-03-03T06:33:50.213Z,1.00
2023-03-03T06:34:22.196Z,1.00
2023-03-03T06:34:38.207Z,1.00
2023-03-03T06:35:10.272Z,1.00
2023-03-03T06:35:53.989Z,1.00
2023-03-03T06:36:26.094Z,1.00
2023-03-03T06:36:58.026Z,1.00
2023-03-03T06:37:29.857Z,1.00
2023-03-03T06:38:01.924Z,1.00
2023-03-03T06:38:33.678Z,1.11
2023-03-03T06:39:05.952Z,1.11
2023-03-03T06:39:37.900Z,1.11
2023-03-03T06:40:10.355Z,1.11
2023-03-03T06:40:41.960Z,1.11
2023-03-03T06:41:13.624Z,1.11
2023-03-03T06:41:45.698Z,1.11
2023-03-03T06:42:17.974Z,1.11
2023-03-03T06:42:49.901Z,1.11
2023-03-03T06:43:21.647Z,1.11
2023-03-03T06:43:37.725Z,1.11
2023-03-03T06:44:21.658Z,1.11
2023-03-03T06:44:53.597Z,1.11
2023-03-03T06:45:26.155Z,1.11
2023-03-03T06:45:57.676Z,1.11
2023-03-03T06:46:29.626Z,1.22
2023-03-03T06:47:01.799Z,1.22
2023-03-03T06:47:33.560Z,1.22
2023-03-03T06:48:05.627Z,1.22
2023-03-03T06:48:21.677Z,1.27
2023-03-03T06:48:53.311Z,1.27
2023-03-03T06:49:37.524Z,1.27
2023-03-03T06:50:09.614Z,1.22
2023-03-03T06:50:41.399Z,1.22
2023-03-03T06:51:13.289Z,1.22
2023-03-03T06:51:45.285Z,1.22
2023-03-03T06:52:17.160Z,1.27
2023-03-03T06:52:49.340Z,1.27
2023-03-03T06:53:05.714Z,1.27
2023-03-03T06:53:49.321Z,1.27
2023-03-03T06:54:21.404Z,1.27
2023-03-03T06:54:53.164Z,1.27
2023-03-03T06:55:25.486Z,1.22
2023-03-03T06:55:57.139Z,1.22
2023-03-03T06:56:29.399Z,1.22
2023-03-03T06:57:01.221Z,1.22
2023-03-03T06:57:32.993Z,1.22
2023-03-03T06:57:49.198Z,1.22
2023-03-03T06:58:21.223Z,1.22